GMMXLPMA

Guest
Details From GMMX - MENARA
To LPMA - Madeira
Flight Number -
Tags generated
Created
Modified
Stats Distance 460 nm / 852 km
Max Altitude 34,000 ft / 10,363 m
Waypoints 8
Social Downloads 1
Likes 0
Share VATSIM

Download

Looking for another format? Having issues loading an existing format? Contact us
Advertisement - Login to hide

Notes

Basic altitude profile: - Ascent Rate: 2500ft/min - Ascent Speed: 240kts - Cruise Altitude: 21000ft - Cruise Speed: 420kts - Descent Rate: 1500ft/min - Descent Speed: 240kts Options: - Use NATs: yes - Use PACOTS: yes - Use low airways: yes - Use high airways: yes

Route

GMMX MAK B11 ESS TURMA DIMSA 3200N01500W KEKOS LPMA

ID Type Via Altitude Latitude Longitude Leg Dist Tot Dist Heading (true) Name
O GMMX APT - 0 ft / 0 m 31.60692˚ -8.03627˚ - 0 nm - MENARA
MAK VOR - 1,200 ft / 366 m 31.61278˚ -8.10306˚ 3 nm 3 nm 276° / 276° MARRAKECH VOR-DME
ESS VOR B11 (AWY-LO) 24,500 ft / 7,468 m 31.40124˚ -9.68696˚ 82 nm 85 nm 262° / 261° ESSAOUIRA VOR-DME
TURMA FIX - 34,000 ft / 10,363 m 31.75389˚ -11.27750˚ 84 nm 169 nm 285° / 284° -
DIMSA FIX - 34,000 ft / 10,363 m 31.97194˚ -12.39889˚ 58 nm 228 nm 283° / 283° -
3200N01500W LATLON - 20,200 ft / 6,157 m 32.00000˚ -15.00000˚ 132 nm 360 nm 271° / 270° -
KEKOS FIX - 6,700 ft / 2,042 m 32.44917˚ -16.22722˚ 67 nm 428 nm 294° / 293° -
O LPMA APT - 0 ft / 0 m 32.69770˚ -16.77445˚ 31 nm 460 nm 298° / 298° Madeira

Altitude Profile

Advertisement - Login to hide

Weather


0- 5 10 15 20 25 30 35+ Temperature / ° C

Clouds and Precipitation
Forecast for 2017-12-14 00:00 UTC. Updated 4 minutes ago

Ground ~20,000 ft ~40,000 ft Winds

GMMX

Details ICAO GMMX (RAK)
Name MENARA
Region Morocco
Timezone Africa/Casablanca (UTC+0.0)
Stats Elevation 1,545 ft / 471 m (AMSL)
Location 31.606920° -8.036265°
Runways 1
Magnetic Variation 2.000° W

METAR

GMMX 131900Z 00000KT CAVOK 11/05 Q1024 NOSIG

Decode

TAF

TAF GMMX 131700Z 1318/1424 06006KT CAVOK

Decode

Departure Runways

ID Width Length Bearing (true) Bearing (mag) Surface Threshold Offset Overrun Length
10 148 ft / 45 m 10,169 ft / 3,100 m 95.99° 97.99° Asphalt 918 ft / 280 m 0 ft / 0 m
28 148 ft / 45 m 10,169 ft / 3,100 m 276.00° 278.00° Asphalt 0 ft / 0 m 0 ft / 0 m

LPMA

Details ICAO LPMA (FNC)
Name Madeira
Region Portugal
Timezone Atlantic/Madeira (UTC+0.0)
Stats Elevation 192 ft / 59 m (AMSL)
Location 32.697704° -16.774449°
Runways 1
Magnetic Variation 4.982° W

METAR

LPMA 131900Z 01010KT 9999 FEW015 SCT030 18/13 Q1029

Decode

TAF

TAF LPMA 131700Z 1318/1418 02013KT 9999 SCT016 SCT030 PROB40 TEMPO 1318/1418 02017G27KT 6000 -RA BKN014

Decode

Destination Runways

ID Width Length Bearing (true) Bearing (mag) Surface Threshold Offset Overrun Length
05 141 ft / 43 m 8,683 ft / 2,647 m 42.98° 47.96° Asphalt 472 ft / 144 m 0 ft / 0 m
23 141 ft / 43 m 8,683 ft / 2,647 m 222.99° 227.97° Asphalt 466 ft / 142 m 0 ft / 0 m

Popular Alternatives